Time;durP1;ratioP1;P1;durP2;ratioP2;P2;SDS_P1;SDS_P2;PMS_P1;PMS_P2;Temp;Humidity;BMP_temperature;BMP_pressure;BME280_temperature;BME280_humidity;BME280_pressure;Samples;Min_cycle;Max_cycle;Signal;HPM_P1;HPM_P2
2023/07/01 00:02:00;;;;;;;6.22;3.40;;;;;;;16.81;100.00;100549.47;5034862;28;20527;-54
2023/07/01 00:04:25;;;;;;;7.35;3.33;;;;;;;16.87;100.00;100558.88;5034975;28;20480;-49
2023/07/01 00:06:51;;;;;;;11.95;4.13;;;;;;;16.59;100.00;100511.06;5052006;28;20048;-53
2023/07/01 00:09:16;;;;;;;4.78;3.55;;;;;;;16.36;100.00;100479.72;5052705;28;20132;-49
2023/07/01 00:11:41;;;;;;;7.82;4.47;;;;;;;16.66;100.00;100552.25;5052783;28;20037;-48
2023/07/01 00:14:07;;;;;;;8.00;4.10;;;;;;;16.52;100.00;100541.59;5052668;28;20433;-49
2023/07/01 00:16:33;;;;;;;6.78;4.40;;;;;;;16.46;100.00;100537.47;5052506;28;20028;-55
2023/07/01 00:18:58;;;;;;;6.15;4.60;;;;;;;16.42;100.00;100529.81;5052331;28;20029;-51
2023/07/01 00:21:24;;;;;;;8.93;4.93;;;;;;;16.37;100.00;100522.13;5034658;28;20032;-54
2023/07/01 00:23:49;;;;;;;5.72;4.50;;;;;;;16.39;100.00;100516.72;5051876;28;20116;-50
2023/07/01 00:26:14;;;;;;;7.35;4.78;;;;;;;16.06;100.00;100442.59;5034434;28;20447;-47
2023/07/01 00:28:40;;;;;;;6.53;5.00;;;;;;;16.38;100.00;100515.00;5034701;28;20040;-48
2023/07/01 00:31:05;;;;;;;10.95;4.97;;;;;;;15.84;100.00;100421.84;5052289;28;20033;-49
2023/07/01 00:33:30;;;;;;;7.20;5.22;;;;;;;16.33;100.00;100499.34;5034366;28;20068;-49
2023/07/01 00:35:56;;;;;;;6.03;4.63;;;;;;;15.91;100.00;100427.59;5051231;28;20075;-49
2023/07/01 00:38:21;;;;;;;7.18;5.30;;;;;;;16.32;100.00;100487.88;5052308;28;20029;-48
2023/07/01 00:40:46;;;;;;;6.43;5.03;;;;;;;16.34;100.00;100491.28;5051509;28;20530;-54
2023/07/01 00:43:12;;;;;;;6.35;4.70;;;;;;;16.24;100.00;100468.03;5051097;28;20041;-49
2023/07/01 00:45:37;;;;;;;10.13;5.43;;;;;;;15.25;100.00;100308.69;5052186;28;20061;-51
2023/07/01 00:48:02;;;;;;;8.65;5.38;;;;;;;16.28;100.00;100485.50;5052110;28;20033;-48
2023/07/01 00:50:28;;;;;;;8.45;5.22;;;;;;;15.94;100.00;100412.34;5051898;28;20065;-53
2023/07/01 00:52:54;;;;;;;7.18;5.40;;;;;;;16.35;100.00;100486.81;5052078;28;20048;-52
2023/07/01 00:55:19;;;;;;;12.45;5.68;;;;;;;16.10;100.00;100445.00;5051963;28;20048;-49
2023/07/01 00:57:45;;;;;;;6.80;6.13;;;;;;;16.32;100.00;100469.28;5068744;28;20041;-49
2023/07/01 01:00:12;;;;;;;9.52;6.00;;;;;;;16.28;100.00;100462.47;5070562;28;20083;-54
2023/07/01 01:03:07;;;;;;;8.10;5.68;;;;;;;16.43;100.00;100473.94;5054195;28;20372;-49
2023/07/01 01:05:38;;;;;;;8.70;5.88;;;;;;;15.96;100.00;100396.34;5071922;28;20040;-52
2023/07/01 01:08:28;;;;;;;8.95;6.43;;;;;;;16.28;100.00;100451.84;5054361;28;20036;-58
2023/07/01 01:10:54;;;;;;;10.25;6.90;;;;;;;16.23;100.00;100434.44;5071953;28;20039;-50
2023/07/01 01:13:20;;;;;;;9.55;6.65;;;;;;;16.40;100.00;100446.72;5069591;28;20503;-51
2023/07/01 01:15:46;;;;;;;8.18;6.40;;;;;;;16.42;100.00;100436.81;5070879;28;20059;-48
2023/07/01 01:18:16;;;;;;;8.43;6.30;;;;;;;16.48;100.00;100441.75;5070398;28;20391;-50
2023/07/01 01:20:43;;;;;;;9.73;7.32;;;;;;;16.44;100.00;100429.59;5071966;28;20029;-49
2023/07/01 01:23:14;;;;;;;8.13;6.88;;;;;;;16.12;100.00;100362.59;5071646;28;20033;-48
2023/07/01 01:25:57;;;;;;;12.18;7.30;;;;;;;16.54;100.00;100431.63;5053768;28;20033;-55
2023/07/01 01:28:23;;;;;;;8.40;7.10;;;;;;;16.54;100.00;100422.81;5069983;28;20540;-49
2023/07/01 01:30:48;;;;;;;8.07;6.88;;;;;;;16.57;100.00;100412.84;5051554;28;20040;-49
2023/07/01 01:33:13;;;;;;;10.05;7.50;;;;;;;16.57;100.00;100422.63;5051776;28;20041;-48
2023/07/01 01:35:39;;;;;;;9.05;7.63;;;;;;;16.56;100.00;100416.44;5050423;28;20036;-49
2023/07/01 01:38:07;;;;;;;10.75;8.05;;;;;;;16.25;100.00;100379.47;5033931;28;20045;-48
2023/07/01 01:40:47;;;;;;;8.98;7.47;;;;;;;16.20;100.00;100344.34;5051540;28;20056;-55
2023/07/01 01:43:26;;;;;;;9.55;8.10;;;;;;;16.54;100.00;100402.41;5050645;28;20159;-50
2023/07/01 01:45:52;;;;;;;10.10;7.88;;;;;;;16.27;100.00;100348.34;5041879;28;20025;-48
2023/07/01 01:48:17;;;;;;;8.80;6.90;;;;;;;16.58;100.00;100393.28;5050426;28;20027;-53
2023/07/01 01:50:48;;;;;;;8.48;7.63;;;;;;;16.46;100.00;100363.97;5033495;28;20043;-49
2023/07/01 01:53:13;;;;;;;9.40;7.40;;;;;;;16.46;100.00;100387.88;5050564;28;20025;-54
2023/07/01 01:55:39;;;;;;;7.68;6.75;;;;;;;16.69;100.00;100401.44;5033699;28;20037;-50
2023/07/01 01:58:04;;;;;;;11.95;8.20;;;;;;;16.31;100.00;100332.09;5052264;28;20033;-56
2023/07/01 02:00:34;;;;;;;12.18;7.90;;;;;;;16.25;100.00;100318.38;5055439;28;20075;-48
2023/07/01 02:02:59;;;;;;;9.10;8.20;;;;;;;16.27;100.00;100314.69;5073888;28;20041;-51
2023/07/01 02:05:25;;;;;;;9.88;7.80;;;;;;;16.73;100.00;100378.16;5057038;28;20067;-50
2023/07/01 02:07:50;;;;;;;8.73;7.68;;;;;;;16.51;100.00;100362.72;5075102;28;20033;-51
2023/07/01 02:10:16;;;;;;;8.45;7.65;;;;;;;16.45;100.00;100333.03;5073752;28;20044;-50
2023/07/01 02:12:41;;;;;;;8.48;7.65;;;;;;;16.50;100.00;100365.47;5074907;28;20108;-48
2023/07/01 02:15:07;;;;;;;8.85;8.00;;;;;;;16.61;100.00;100382.44;5074945;28;20075;-48
2023/07/01 02:17:32;;;;;;;11.18;9.30;;;;;;;16.60;100.00;100379.91;5074819;28;20468;-47
2023/07/01 02:19:58;;;;;;;11.25;10.18;;;;;;;16.32;100.00;100315.22;5036044;28;20124;-55
2023/07/01 02:22:23;;;;;;;13.32;10.65;;;;;;;16.61;100.00;100363.00;5054798;28;20045;-53
2023/07/01 02:24:48;;;;;;;12.10;11.00;;;;;;;16.47;100.00;100341.75;5054416;28;20037;-50
2023/07/01 02:27:14;;;;;;;11.75;10.73;;;;;;;16.24;100.00;100308.69;5054675;28;20125;-54
2023/07/01 02:29:39;;;;;;;10.80;9.85;;;;;;;16.16;100.00;100303.91;5054424;28;20044;-48
2023/07/01 02:32:05;;;;;;;11.73;9.93;;;;;;;16.14;100.00;100284.53;5054471;28;20068;-54
2023/07/01 02:34:30;;;;;;;10.73;9.82;;;;;;;16.54;100.00;100359.03;5054180;28;20396;-51
2023/07/01 02:36:56;;;;;;;10.55;9.45;;;;;;;16.47;100.00;100353.22;5053831;28;20037;-51
2023/07/01 02:39:21;;;;;;;11.30;10.13;;;;;;;16.47;100.00;100353.22;5036708;28;20037;-50
2023/07/01 02:41:47;;;;;;;10.73;9.68;;;;;;;16.10;100.00;100279.53;5054420;28;20061;-50
2023/07/01 02:44:12;;;;;;;12.38;11.13;;;;;;;16.51;100.00;100353.91;5053112;28;20044;-49
2023/07/01 02:46:38;;;;;;;11.00;10.15;;;;;;;16.49;100.00;100345.19;5036512;28;20031;-48
2023/07/01 02:49:04;;;;;;;9.73;8.82;;;;;;;16.07;100.00;100269.97;5054310;28;20033;-53
2023/07/01 02:51:29;;;;;;;11.23;9.02;;;;;;;16.46;100.00;100348.84;5054253;28;20032;-50
2023/07/01 02:53:55;;;;;;;10.50;8.77;;;;;;;16.41;100.00;100326.19;5036056;28;20041;-50
2023/07/01 02:56:20;;;;;;;10.02;9.05;;;;;;;16.45;100.00;100336.56;5054196;28;20033;-49
2023/07/01 02:58:45;;;;;;;9.90;8.90;;;;;;;16.41;100.00;100339.47;5054201;28;20495;-51
2023/07/01 03:01:12;;;;;;;10.43;9.20;;;;;;;15.88;100.00;100245.50;5035968;28;20056;-51
2023/07/01 03:03:37;;;;;;;12.55;10.02;;;;;;;16.43;100.00;100335.81;5052871;28;20025;-54
2023/07/01 03:06:03;;;;;;;11.15;9.88;;;;;;;16.44;100.00;100328.66;5054145;28;20059;-48
2023/07/01 03:08:28;;;;;;;10.23;9.02;;;;;;;16.10;100.00;100268.91;5053402;28;20149;-54
2023/07/01 03:10:53;;;;;;;10.25;9.25;;;;;;;15.72;100.00;100205.84;5059583;28;20044;-48
2023/07/01 03:13:19;;;;;;;10.55;9.63;;;;;;;15.93;100.00;100242.59;5072881;28;20040;-50
2023/07/01 03:15:44;;;;;;;9.27;8.43;;;;;;;16.03;100.00;100260.47;5073777;28;20477;-52
2023/07/01 03:18:10;;;;;;;10.63;9.63;;;;;;;15.93;100.00;100253.19;5055546;28;20086;-48
2023/07/01 03:20:35;;;;;;;11.88;9.68;;;;;;;16.42;100.00;100309.31;5073541;28;20064;-50
2023/07/01 03:23:01;;;;;;;10.18;9.20;;;;;;;16.45;100.00;100315.28;5073682;28;20476;-50
2023/07/01 03:25:27;;;;;;;12.23;11.13;;;;;;;16.32;100.00;100283.34;5073537;28;20059;-49
2023/07/01 03:27:52;;;;;;;12.07;10.70;;;;;;;16.27;100.00;100288.13;5072194;28;20063;-49
2023/07/01 03:30:19;;;;;;;10.82;9.82;;;;;;;16.00;100.00;100241.22;5073133;28;20071;-56
2023/07/01 03:32:48;;;;;;;11.88;10.05;;;;;;;16.26;100.00;100282.88;5073225;28;20383;-48
2023/07/01 03:35:15;;;;;;;10.98;9.98;;;;;;;15.94;100.00;100233.66;5072012;28;20028;-50
2023/07/01 03:37:42;;;;;;;10.27;9.38;;;;;;;15.97;100.00;100234.31;5073474;28;20387;-52
2023/07/01 03:40:11;;;;;;;13.40;11.18;;;;;;;15.92;100.00;100216.97;5073394;28;20025;-50
2023/07/01 03:42:37;;;;;;;11.05;10.10;;;;;;;16.33;100.00;100281.56;5073143;28;20091;-49
2023/07/01 03:45:05;;;;;;;10.45;9.65;;;;;;;16.26;100.00;100272.25;5063448;28;20029;-49
2023/07/01 03:47:30;;;;;;;11.25;10.35;;;;;;;15.99;100.00;100213.84;5035365;28;20091;-50
2023/07/01 03:49:56;;;;;;;10.38;9.48;;;;;;;16.47;100.00;100280.66;5052957;28;20415;-51
2023/07/01 03:52:21;;;;;;;10.13;9.23;;;;;;;16.32;100.00;100274.53;5053553;28;20072;-48
2023/07/01 03:54:46;;;;;;;10.00;9.10;;;;;;;16.45;100.00;100263.97;5053410;28;20072;-53
2023/07/01 03:57:12;;;;;;;9.77;9.05;;;;;;;16.03;100.00;100202.06;5053035;28;20507;-53
2023/07/01 03:59:37;;;;;;;10.13;9.23;;;;;;;16.33;100.00;100249.69;5052932;28;20086;-46
2023/07/01 04:02:05;;;;;;;10.15;9.38;;;;;;;16.04;100.00;100194.97;5048044;28;20053;-56
2023/07/01 04:04:30;;;;;;;10.45;9.57;;;;;;;16.10;100.00;100203.38;5067091;28;20118;-53
2023/07/01 04:06:57;;;;;;;11.55;10.57;;;;;;;16.45;100.00;100275.44;5052762;28;20071;-49
2023/07/01 04:09:22;;;;;;;11.90;10.70;;;;;;;16.39;100.00;100248.44;5052766;28;20033;-52
2023/07/01 04:11:48;;;;;;;12.52;11.43;;;;;;;16.47;100.00;100262.91;5034819;28;20055;-50
2023/07/01 04:14:15;;;;;;;13.20;12.02;;;;;;;16.36;100.00;100241.50;5053036;28;20036;-49
2023/07/01 04:16:44;;;;;;;12.68;11.48;;;;;;;16.31;100.00;100231.19;5052456;28;20040;-48
2023/07/01 04:19:12;;;;;;;13.27;12.07;;;;;;;16.49;100.00;100266.31;5052696;28;20029;-56
2023/07/01 04:21:39;;;;;;;12.32;11.23;;;;;;;16.05;100.00;100188.72;5051262;28;20044;-49
2023/07/01 04:24:07;;;;;;;13.93;12.65;;;;;;;16.39;100.00;100243.97;5052585;28;20047;-49
2023/07/01 04:26:32;;;;;;;13.07;11.88;;;;;;;16.10;100.00;100190.13;5052576;28;20125;-51
2023/07/01 04:28:58;;;;;;;13.70;12.38;;;;;;;16.51;100.00;100252.94;5067984;28;20115;-52
2023/07/01 04:31:23;;;;;;;12.52;11.35;;;;;;;16.53;100.00;100256.34;5052266;28;20492;-51
2023/07/01 04:33:49;;;;;;;12.10;10.85;;;;;;;16.44;100.00;100219.75;5052227;28;20488;-49
2023/07/01 04:36:14;;;;;;;11.90;10.80;;;;;;;16.57;100.00;100248.13;5052464;28;20041;-52
2023/07/01 04:38:40;;;;;;;11.82;10.65;;;;;;;16.24;100.00;100189.19;5051139;28;20044;-52
2023/07/01 04:41:05;;;;;;;13.70;12.27;;;;;;;16.20;100.00;100177.91;5052200;28;20025;-52
2023/07/01 04:43:31;;;;;;;13.35;11.98;;;;;;;16.23;100.00;100184.81;5052329;28;20045;-49
2023/07/01 04:45:56;;;;;;;14.15;12.85;;;;;;;16.51;100.00;100239.66;5051039;28;20063;-50
2023/07/01 04:48:21;;;;;;;15.40;14.00;;;;;;;16.21;100.00;100186.75;5051383;28;20430;-55
2023/07/01 04:50:47;;;;;;;16.15;14.65;;;;;;;16.60;100.00;100247.06;5035912;28;20029;-49
2023/07/01 04:53:12;;;;;;;16.48;14.90;;;;;;;16.59;100.00;100235.56;5032383;28;20492;-46
2023/07/01 04:55:38;;;;;;;16.75;15.15;;;;;;;16.60;100.00;100239.09;5032186;28;20037;-48
2023/07/01 04:58:03;;;;;;;15.18;13.88;;;;;;;16.63;100.00;100237.06;5032202;28;20033;-53
2023/07/01 05:00:29;;;;;;;16.63;15.02;;;;;;;16.58;100.00;100239.16;5030609;28;20061;-48
2023/07/01 05:02:54;;;;;;;16.10;14.57;;;;;;;16.15;100.00;100161.44;5044958;28;20041;-53
2023/07/01 05:05:19;;;;;;;14.65;13.40;;;;;;;16.61;100.00;100230.13;5052062;28;20183;-49
2023/07/01 05:07:45;;;;;;;16.15;14.48;;;;;;;16.62;100.00;100237.16;5051957;28;20044;-55
2023/07/01 05:10:10;;;;;;;15.32;13.98;;;;;;;16.21;100.00;100161.03;5051615;28;20041;-50
2023/07/01 05:12:35;;;;;;;15.13;13.52;;;;;;;16.36;100.00;100179.56;5052334;28;20033;-49
2023/07/01 05:15:01;;;;;;;14.27;12.77;;;;;;;16.15;100.00;100158.78;5051950;28;20468;-48
2023/07/01 05:17:26;;;;;;;14.90;13.50;;;;;;;16.22;100.00;100159.25;5051876;28;20037;-51
2023/07/01 05:19:51;;;;;;;14.45;13.23;;;;;;;16.15;100.00;100145.53;5050824;28;20407;-48
2023/07/01 05:22:17;;;;;;;16.17;14.68;;;;;;;16.25;100.00;100170.53;5051631;28;20104;-47
2023/07/01 05:24:42;;;;;;;16.98;15.43;;;;;;;16.42;100.00;100187.13;5051811;28;20369;-45
2023/07/01 05:27:07;;;;;;;15.50;14.10;;;;;;;16.49;100.00;100191.91;5051907;28;20456;-48
2023/07/01 05:29:33;;;;;;;16.08;14.68;;;;;;;16.67;100.00;100216.44;5051598;28;20040;-49
2023/07/01 05:31:58;;;;;;;15.30;13.90;;;;;;;16.57;100.00;100191.47;5052052;28;20041;-49
2023/07/01 05:34:23;;;;;;;15.93;14.32;;;;;;;16.50;100.00;100180.34;5055712;28;20041;-47
2023/07/01 05:36:50;;;;;;;14.35;13.07;;;;;;;16.31;100.00;100154.16;5054080;28;20469;-46
2023/07/01 05:39:15;;;;;;;15.05;13.75;;;;;;;16.67;100.00;100198.69;5035303;28;20041;-49
2023/07/01 05:41:41;;;;;;;16.40;14.77;;;;;;;16.47;100.00;100166.41;5035583;28;20534;-47
2023/07/01 05:44:06;;;;;;;16.10;14.57;;;;;;;16.41;100.00;100145.56;5050602;28;20508;-51
2023/07/01 05:46:32;;;;;;;16.05;14.55;;;;;;;16.76;100.00;100202.53;5035475;28;20030;-48
2023/07/01 05:48:57;;;;;;;15.05;13.52;;;;;;;16.62;100.00;100198.16;5034116;28;20033;-50
2023/07/01 05:51:22;;;;;;;14.20;13.00;;;;;;;16.83;100.00;100217.97;5033954;28;20048;-51
2023/07/01 05:53:48;;;;;;;14.02;12.77;;;;;;;16.44;100.00;100140.91;5050756;28;20048;-50
2023/07/01 05:56:14;;;;;;;14.32;12.95;;;;;;;16.71;100.00;100194.88;5070505;28;20469;-49
2023/07/01 05:58:39;;;;;;;15.02;13.50;;;;;;;16.63;100.00;100191.06;5054964;28;20036;-48
2023/07/01 06:01:05;;;;;;;15.73;14.23;;;;;;;16.79;100.00;100216.47;5059816;28;20075;-48
2023/07/01 06:03:30;;;;;;;15.00;13.57;;;;;;;16.66;100.00;100183.72;5063214;28;20416;-49
2023/07/01 06:05:55;;;;;;;15.60;14.20;;;;;;;16.52;100.00;100149.22;5055825;28;20067;-49
2023/07/01 06:08:21;;;;;;;15.98;14.38;;;;;;;16.63;100.00;100156.50;5059694;28;20467;-47
2023/07/01 06:10:46;;;;;;;15.75;14.35;;;;;;;16.57;100.00;100144.50;5038179;28;20040;-51
2023/07/01 06:13:11;;;;;;;15.35;13.90;;;;;;;16.63;100.00;100146.72;5049101;28;20039;-46
2023/07/01 06:15:37;;;;;;;16.27;14.68;;;;;;;17.09;100.00;100205.56;5068749;28;20033;-47
2023/07/01 06:18:02;;;;;;;14.15;12.85;;;;;;;17.07;100.00;100211.94;5054886;28;20037;-48
2023/07/01 06:20:27;;;;;;;14.70;13.30;;;;;;;16.79;100.00;100158.00;5058596;28;20284;-48
2023/07/01 06:22:52;;;;;;;13.90;12.68;;;;;;;17.12;100.00;100212.47;5054833;28;20044;-47
2023/07/01 06:25:18;;;;;;;16.17;14.48;;;;;;;17.17;100.00;100240.44;5055225;28;20041;-52
2023/07/01 06:27:43;;;;;;;16.15;13.93;;;;;;;17.19;100.00;100198.63;5067227;28;20032;-50
2023/07/01 06:30:09;;;;;;;15.75;14.35;;;;;;;17.00;100.00;100174.28;5052559;28;20400;-54
2023/07/01 06:32:34;;;;;;;15.15;13.55;;;;;;;17.23;100.00;100215.22;5040039;28;20029;-48
2023/07/01 06:35:00;;;;;;;14.77;13.43;;;;;;;17.29;100.00;100206.81;5060713;28;20044;-46
2023/07/01 06:37:25;;;;;;;13.73;12.43;;;;;;;17.34;100.00;100210.00;5053749;28;20028;-47
2023/07/01 06:39:51;;;;;;;13.70;12.50;;;;;;;17.38;100.00;100212.38;5054047;28;20395;-48
2023/07/01 06:42:16;;;;;;;13.68;12.55;;;;;;;17.31;100.00;100192.47;5057133;28;20693;-50
2023/07/01 06:44:41;;;;;;;12.93;11.68;;;;;;;17.42;100.00;100202.38;5062777;28;20033;-49
2023/07/01 06:47:07;;;;;;;13.93;12.73;;;;;;;17.34;100.00;100186.91;5054077;28;20228;-47
2023/07/01 06:49:32;;;;;;;13.73;12.43;;;;;;;17.45;100.00;100195.00;5053620;28;20447;-50
2023/07/01 06:51:58;;;;;;;13.63;12.48;;;;;;;17.56;100.00;100212.06;5054296;28;20059;-48
2023/07/01 06:54:23;;;;;;;13.63;12.15;;;;;;;17.56;100.00;100209.38;5069463;28;20087;-49
2023/07/01 06:56:48;;;;;;;13.05;11.93;;;;;;;17.27;100.00;100147.56;5070251;28;20399;-50
2023/07/01 06:59:14;;;;;;;13.20;12.00;;;;;;;17.48;100.00;100180.66;5072443;28;20484;-54
2023/07/01 07:01:39;;;;;;;12.75;11.55;;;;;;;17.54;100.00;100187.34;5071650;28;20476;-48
2023/07/01 07:04:05;;;;;;;12.60;11.48;;;;;;;17.63;100.00;100194.69;5072740;28;20036;-49
2023/07/01 07:06:30;;;;;;;11.48;10.38;;;;;;;17.77;100.00;100194.56;5066156;28;20029;-50
2023/07/01 07:08:56;;;;;;;11.82;10.52;;;;;;;17.78;100.00;100196.25;5068605;28;20075;-47
2023/07/01 07:11:21;;;;;;;9.55;8.75;;;;;;;17.78;100.00;100196.25;5044894;28;20139;-48
2023/07/01 07:13:46;;;;;;;10.27;9.38;;;;;;;17.81;100.00;100190.69;5072057;28;20032;-47
2023/07/01 07:16:11;;;;;;;9.70;8.90;;;;;;;17.82;100.00;100197.72;5073058;28;20044;-53
2023/07/01 07:18:37;;;;;;;10.82;9.93;;;;;;;17.84;100.00;100183.34;5046969;28;20037;-50
2023/07/01 07:21:02;;;;;;;10.93;9.93;;;;;;;17.54;100.00;100119.00;5035644;28;20041;-49
2023/07/01 07:23:28;;;;;;;9.68;8.88;;;;;;;18.01;100.00;100182.09;5035374;28;20045;-50
2023/07/01 07:25:53;;;;;;;9.45;8.75;;;;;;;18.03;100.00;100184.66;5053171;28;20120;-48
2023/07/01 07:28:18;;;;;;;9.57;8.88;;;;;;;17.97;100.00;100186.81;5053382;28;20037;-53
2023/07/01 07:30:44;;;;;;;11.25;10.27;;;;;;;17.77;100.00;100142.16;5053251;28;20072;-50
2023/07/01 07:33:09;;;;;;;9.95;9.15;;;;;;;17.60;100.00;100107.91;5052173;28;20033;-47
2023/07/01 07:35:34;;;;;;;10.57;9.77;;;;;;;17.88;100.00;100166.19;5052414;28;20559;-49
2023/07/01 07:37:59;;;;;;;10.30;9.43;;;;;;;17.91;100.00;100178.44;5053178;28;20043;-50
2023/07/01 07:40:25;;;;;;;11.27;10.32;;;;;;;17.96;100.00;100186.91;5053030;28;20071;-48
2023/07/01 07:42:53;;;;;;;10.63;9.73;;;;;;;17.87;100.00;100169.81;5053117;28;20473;-51
2023/07/01 07:45:20;;;;;;;9.13;8.43;;;;;;;17.82;100.00;100152.47;5035867;28;20037;-47
2023/07/01 07:47:46;;;;;;;8.25;7.65;;;;;;;18.02;100.00;100181.16;5035418;28;20029;-49
2023/07/01 07:50:11;;;;;;;7.80;7.20;;;;;;;18.06;100.00;100185.31;5062222;28;20036;-49
2023/07/01 07:52:37;;;;;;;5.68;5.20;;;;;;;18.07;100.00;100189.66;5073044;28;20045;-47
2023/07/01 07:55:02;;;;;;;5.20;4.80;;;;;;;17.94;100.00;100164.91;5072324;28;20457;-51
2023/07/01 07:57:27;;;;;;;4.53;4.15;;;;;;;17.99;100.00;100150.28;5071542;28;20036;-47
2023/07/01 07:59:53;;;;;;;4.40;4.10;;;;;;;17.86;100.00;100122.84;5072762;28;20036;-49
2023/07/01 08:02:18;;;;;;;4.10;3.80;;;;;;;18.11;100.00;100148.53;5072794;28;20041;-48
2023/07/01 08:04:44;;;;;;;4.45;4.15;;;;;;;17.97;100.00;100127.38;5072674;28;20055;-48
2023/07/01 08:07:10;;;;;;;3.40;3.20;;;;;;;18.36;100.00;100184.81;5068313;28;20510;-47
2023/07/01 08:09:35;;;;;;;3.75;2.72;;;;;;;18.48;100.00;100181.25;5072330;28;20036;-50
2023/07/01 08:12:01;;;;;;;2.40;1.92;;;;;;;18.30;100.00;100116.84;5072343;28;20033;-47
2023/07/01 08:14:27;;;;;;;1.70;1.60;;;;;;;18.58;100.00;100168.09;5072797;28;20063;-50
2023/07/01 08:16:53;;;;;;;1.38;1.10;;;;;;;18.53;100.00;100177.28;5054714;28;20028;-48
2023/07/01 08:19:19;;;;;;;2.15;1.13;;;;;;;18.46;100.00;100184.03;5054747;28;20344;-46
2023/07/01 08:21:44;;;;;;;1.27;1.17;;;;;;;18.29;100.00;100138.31;5067892;28;20075;-52
2023/07/01 08:24:09;;;;;;;1.15;1.08;;;;;;;18.48;100.00;100173.25;5052324;28;20025;-48
2023/07/01 08:26:35;;;;;;;0.80;0.73;;;;;;;18.16;100.00;100121.53;5052157;28;20465;-51
2023/07/01 08:29:00;;;;;;;1.95;0.70;;;;;;;18.50;100.00;100179.38;5052353;28;20598;-47
2023/07/01 08:31:26;;;;;;;1.10;0.73;;;;;;;18.32;100.00;100164.72;5052135;28;20041;-48
2023/07/01 08:33:51;;;;;;;0.63;0.63;;;;;;;18.00;100.00;100119.19;5034721;28;20044;-52
2023/07/01 08:36:17;;;;;;;2.35;1.08;;;;;;;18.31;100.00;100185.19;5052229;28;20111;-50
2023/07/01 08:38:42;;;;;;;1.52;0.80;;;;;;;18.30;100.00;100188.78;5052573;28;20079;-54
2023/07/01 08:41:09;;;;;;;0.98;0.73;;;;;;;18.29;100.00;100186.25;5052659;28;20043;-48
2023/07/01 08:43:35;;;;;;;1.13;0.70;;;;;;;17.91;100.00;100114.53;5054377;28;20122;-49
2023/07/01 08:46:04;;;;;;;3.00;0.88;;;;;;;17.92;100.00;100132.22;5053919;28;20063;-47
2023/07/01 08:48:32;;;;;;;1.20;1.10;;;;;;;17.81;100.00;100113.50;5071156;28;20071;-50
2023/07/01 08:51:09;;;;;;;3.08;1.65;;;;;;;18.34;100.00;100187.63;5072006;28;20032;-47
2023/07/01 08:53:36;;;;;;;1.50;1.40;;;;;;;18.03;100.00;100132.25;5072172;28;20063;-49
2023/07/01 08:56:01;;;;;;;2.17;1.58;;;;;;;18.02;100.00;100124.38;5053201;28;20063;-47
2023/07/01 08:58:28;;;;;;;3.15;1.60;;;;;;;18.22;100.00;100164.53;5070969;28;20063;-49
2023/07/01 09:00:55;;;;;;;1.75;1.65;;;;;;;18.30;100.00;100183.47;5071622;28;20095;-47
2023/07/01 09:03:21;;;;;;;4.55;2.13;;;;;;;18.31;100.00;100181.66;5071928;28;20091;-48
2023/07/01 09:05:46;;;;;;;2.25;2.05;;;;;;;18.39;100.00;100182.78;5070505;28;20480;-47
2023/07/01 09:08:12;;;;;;;3.00;2.10;;;;;;;18.41;100.00;100164.88;5073641;28;20457;-48
2023/07/01 09:10:37;;;;;;;4.85;2.30;;;;;;;18.26;100.00;100109.22;5076254;28;20043;-48
2023/07/01 09:13:13;;;;;;;2.38;2.17;;;;;;;18.48;100.00;100109.28;5057703;28;20480;-52
2023/07/01 09:15:46;;;;;;;4.50;2.40;;;;;;;18.98;100.00;100188.94;5071667;28;20074;-52
2023/07/01 09:18:23;;;;;;;2.88;2.50;;;;;;;18.95;100.00;100183.84;5055426;28;20033;-48
2023/07/01 09:20:50;;;;;;;4.35;2.88;;;;;;;18.78;100.00;100164.78;5055694;28;20555;-48
2023/07/01 09:23:26;;;;;;;5.47;2.95;;;;;;;18.86;100.00;100179.22;5055748;28;20476;-48
2023/07/01 09:25:52;;;;;;;3.63;2.90;;;;;;;18.87;100.00;100186.25;5055700;28;20037;-50
2023/07/01 09:28:29;;;;;;;4.97;3.80;;;;;;;18.49;100.00;100124.34;5055883;28;20035;-48
2023/07/01 09:30:59;;;;;;;4.72;4.32;;;;;;;18.72;100.00;100162.56;5055619;28;20037;-48
2023/07/01 09:33:24;;;;;;;5.18;4.55;;;;;;;18.90;100.00;100182.50;5037889;28;20041;-50
2023/07/01 09:35:54;;;;;;;7.18;5.20;;;;;;;18.80;100.00;100177.00;5037777;28;20163;-49
2023/07/01 09:38:20;;;;;;;7.25;4.65;;;;;;;18.80;100.00;100178.81;5055870;28;20056;-51
2023/07/01 09:40:45;;;;;;;6.70;5.22;;;;;;;18.69;100.00;100165.47;5054121;28;20033;-50
2023/07/01 09:43:10;;;;;;;9.05;5.22;;;;;;;18.72;100.00;100182.09;5054357;28;20029;-48
2023/07/01 09:45:36;;;;;;;6.88;5.38;;;;;;;18.66;100.00;100187.03;5055503;28;20519;-48
2023/07/01 09:48:10;;;;;;;6.72;5.07;;;;;;;18.53;100.00;100158.63;5058855;28;20541;-47
2023/07/01 09:50:35;;;;;;;10.77;6.35;;;;;;;18.30;100.00;100135.50;5037524;28;20029;-50
2023/07/01 09:53:00;;;;;;;11.13;6.07;;;;;;;18.29;100.00;100119.66;5054253;28;20040;-47
2023/07/01 09:55:27;;;;;;;8.40;5.80;;;;;;;18.66;100.00;100179.03;5054748;28;20041;-47
2023/07/01 09:57:52;;;;;;;11.18;5.88;;;;;;;18.75;100.00;100194.34;5037263;28;20384;-52
2023/07/01 10:00:20;;;;;;;10.15;5.28;;;;;;;18.71;100.00;100172.38;5055075;28;20037;-52
2023/07/01 10:02:47;;;;;;;6.32;5.03;;;;;;;18.80;100.00;100185.00;5054960;28;20056;-50
2023/07/01 10:05:13;;;;;;;7.90;5.70;;;;;;;18.32;100.00;100104.28;5062575;28;20384;-49
2023/07/01 10:07:40;;;;;;;9.35;5.45;;;;;;;18.65;100.00;100180.03;5073864;28;20036;-51
2023/07/01 10:10:10;;;;;;;11.18;5.65;;;;;;;18.64;100.00;100184.50;5074969;28;20040;-48
2023/07/01 10:12:36;;;;;;;7.95;5.68;;;;;;;18.64;100.00;100184.50;5073520;28;20059;-51
2023/07/01 10:15:02;;;;;;;9.57;5.65;;;;;;;18.61;100.00;100179.41;5072438;28;20083;-48
2023/07/01 10:17:47;;;;;;;8.50;6.20;;;;;;;18.53;100.00;100179.97;5056717;28;20134;-49
2023/07/01 10:20:28;;;;;;;10.30;6.18;;;;;;;18.19;100.00;100127.47;5074664;28;20028;-52
2023/07/01 10:23:01;;;;;;;10.95;5.70;;;;;;;18.53;100.00;100195.13;5068370;28;20029;-50
2023/07/01 10:25:39;;;;;;;8.13;5.32;;;;;;;18.09;100.00;100133.63;5054423;28;20074;-54
2023/07/01 10:28:06;;;;;;;8.88;5.43;;;;;;;18.40;100.00;100188.97;5054996;28;20076;-48
2023/07/01 10:30:55;;;;;;;7.35;4.60;;;;;;;18.41;100.00;100194.19;5054982;28;20028;-48
2023/07/01 10:33:39;;;;;;;11.40;5.35;;;;;;;18.43;100.00;100205.59;5046368;28;20183;-48
2023/07/01 10:36:09;;;;;;;9.85;5.85;;;;;;;17.94;100.00;100101.00;5054542;28;20025;-48
2023/07/01 10:38:36;;;;;;;10.95;6.07;;;;;;;18.49;100.00;100202.50;5054756;28;20425;-49
2023/07/01 10:41:01;;;;;;;10.63;5.90;;;;;;;18.18;100.00;100144.44;5069990;28;20036;-48
2023/07/01 10:43:34;;;;;;;10.75;5.97;;;;;;;18.62;100.00;100191.78;5074510;28;20438;-49
2023/07/01 10:46:24;;;;;;;8.25;5.50;;;;;;;18.70;100.00;100201.84;5056583;28;20036;-52
2023/07/01 10:49:02;;;;;;;12.65;5.40;;;;;;;18.92;100.00;100196.56;5073037;28;20024;-50
2023/07/01 10:51:28;;;;;;;9.00;5.65;;;;;;;18.80;100.00;100163.69;5071825;28;20047;-50
2023/07/01 10:54:04;;;;;;;9.48;4.63;;;;;;;18.87;100.00;100150.72;5074344;28;20024;-49
2023/07/01 10:56:36;;;;;;;11.30;4.97;;;;;;;19.38;100.00;100197.34;5074159;28;20120;-51
2023/07/01 10:59:16;;;;;;;8.57;4.85;;;;;;;19.57;100.00;100197.63;5056277;28;20048;-47
2023/07/01 11:01:47;;;;;;;11.50;5.72;;;;;;;19.52;100.00;100188.28;5073744;28;20094;-48
2023/07/01 11:04:12;;;;;;;8.77;5.22;;;;;;;19.47;100.00;100182.44;5074036;28;20119;-48
2023/07/01 11:06:49;;;;;;;10.15;5.35;;;;;;;19.50;100.00;100190.22;5051127;28;20156;-55
2023/07/01 11:09:15;;;;;;;6.80;4.53;;;;;;;19.42;100.00;100206.84;5053440;28;20028;-49